createdAt,value
2022-11-27T00:00:10.866Z,-4.71
2022-11-27T00:05:14.328Z,-4.79
2022-11-27T00:10:17.992Z,-4.78
2022-11-27T00:15:22.854Z,-4.64
2022-11-27T00:20:29.568Z,-4.56
2022-11-27T00:25:33.364Z,-4.58
2022-11-27T00:30:38.138Z,-4.42
2022-11-27T00:35:41.418Z,-4.49
2022-11-27T00:40:44.862Z,-4.59
2022-11-27T00:45:51.560Z,-4.59
2022-11-27T00:51:00.960Z,-4.36
2022-11-27T00:56:04.624Z,-4.48
2022-11-27T01:01:09.892Z,-4.54
2022-11-27T01:06:13.800Z,-4.49
2022-11-27T01:11:19.305Z,-4.68
2022-11-27T01:16:26.347Z,-4.38
2022-11-27T01:21:32.344Z,-4.60
2022-11-27T01:26:35.893Z,-4.70
2022-11-27T01:31:41.437Z,-4.69
2022-11-27T01:36:45.386Z,-4.80
2022-11-27T01:41:49.868Z,-4.67
2022-11-27T01:46:57.062Z,-4.44
2022-11-27T01:52:03.355Z,-4.49
2022-11-27T01:57:09.645Z,-4.42
2022-11-27T02:02:14.450Z,-4.37
2022-11-27T02:07:17.854Z,-4.20
2022-11-27T02:12:26.144Z,-4.08
2022-11-27T02:17:37.810Z,-4.10
2022-11-27T02:22:57.972Z,-4.08
2022-11-27T02:28:15.728Z,-4.31
2022-11-27T02:33:23.144Z,-4.49
2022-11-27T02:38:31.716Z,-4.20
2022-11-27T02:43:38.985Z,-4.37
2022-11-27T02:48:48.153Z,-4.37
2022-11-27T02:53:55.192Z,-4.31
2022-11-27T02:59:02.964Z,-4.24
2022-11-27T03:04:11.292Z,-4.07
2022-11-27T03:09:19.403Z,-4.16
2022-11-27T03:14:24.914Z,-4.10
2022-11-27T03:19:38.668Z,-4.05
2022-11-27T03:24:42.498Z,-4.13
2022-11-27T03:29:51.279Z,-4.16
2022-11-27T03:34:56.838Z,-3.94
2022-11-27T03:40:00.185Z,-3.88
2022-11-27T03:45:09.826Z,-4.01
2022-11-27T03:50:34.887Z,-4.21
2022-11-27T03:55:42.695Z,-4.17
2022-11-27T04:00:46.908Z,-3.95
2022-11-27T04:05:51.637Z,-4.11
2022-11-27T04:10:54.721Z,-4.08
2022-11-27T04:16:02.344Z,-4.01
2022-11-27T04:21:07.483Z,-4.08
2022-11-27T04:26:11.030Z,-4.17
2022-11-27T04:31:14.613Z,-4.06
2022-11-27T04:36:19.251Z,-3.84
2022-11-27T04:41:22.656Z,-3.99
2022-11-27T04:46:25.978Z,-3.91
2022-11-27T04:51:30.664Z,-3.72
2022-11-27T04:56:33.653Z,-3.43
2022-11-27T05:01:37.288Z,-3.50
2022-11-27T05:06:42.091Z,-3.43
2022-11-27T05:11:45.428Z,-3.51
2022-11-27T05:16:50.227Z,-3.64
2022-11-27T05:21:55.646Z,-3.46
2022-11-27T05:26:59.372Z,-3.41
2022-11-27T05:32:02.851Z,-3.37
2022-11-27T05:37:07.566Z,-3.45
2022-11-27T05:42:10.705Z,-3.42
2022-11-27T05:47:13.925Z,-3.39
2022-11-27T05:52:18.619Z,-3.16
2022-11-27T05:57:22.165Z,-3.11
2022-11-27T06:02:29.412Z,-2.89
2022-11-27T06:07:34.502Z,-2.75
2022-11-27T06:12:37.566Z,-2.70
2022-11-27T06:17:41.188Z,-2.75
2022-11-27T06:22:45.981Z,-2.76
2022-11-27T06:27:49.087Z,-2.76
2022-11-27T06:32:52.742Z,-2.89
2022-11-27T06:37:57.453Z,-2.72
2022-11-27T06:43:01.065Z,-2.52
2022-11-27T06:48:04.511Z,-2.27
2022-11-27T06:53:09.165Z,-2.22
2022-11-27T06:58:12.485Z,-2.20
2022-11-27T07:03:15.885Z,-2.17
2022-11-27T07:08:20.807Z,-1.95
2022-11-27T07:13:25.414Z,-1.87
2022-11-27T07:18:28.704Z,-1.68
2022-11-27T07:23:33.523Z,-1.47
2022-11-27T07:28:36.580Z,-1.18
2022-11-27T07:33:39.990Z,-1.20
2022-11-27T07:38:46.776Z,-0.89
2022-11-27T07:43:50.541Z,-0.91
2022-11-27T07:48:54.116Z,-0.81
2022-11-27T07:53:58.903Z,-0.77
2022-11-27T07:59:02.010Z,-0.71
2022-11-27T08:04:05.390Z,-0.79
2022-11-27T08:09:10.054Z,-0.78
2022-11-27T08:14:15.012Z,-0.94
2022-11-27T08:19:18.187Z,-0.78
2022-11-27T08:24:22.992Z,-0.69
2022-11-27T08:29:31.185Z,-0.77
2022-11-27T08:34:37.318Z,-0.65
2022-11-27T08:39:41.944Z,-0.56
2022-11-27T08:44:45.137Z,-0.30
2022-11-27T08:49:48.550Z,0.21
2022-11-27T08:54:57.351Z,0.47
2022-11-27T09:00:01.216Z,0.17
2022-11-27T09:05:06.832Z,0.30
2022-11-27T09:10:12.125Z,0.03
2022-11-27T09:15:15.597Z,0.10
2022-11-27T09:20:19.650Z,0.15
2022-11-27T09:25:24.327Z,0.02
2022-11-27T09:30:27.536Z,0.15
2022-11-27T09:35:30.933Z,0.16
2022-11-27T09:40:36.265Z,0.14
2022-11-27T09:45:45.693Z,0.17
2022-11-27T09:50:53.437Z,0.20
2022-11-27T09:56:00.255Z,0.00
2022-11-27T10:01:10.755Z,-0.09
2022-11-27T10:06:25.629Z,-0.05
2022-11-27T10:11:34.209Z,-0.11
2022-11-27T10:16:44.686Z,0.08
2022-11-27T10:21:53.757Z,0.11
2022-11-27T10:27:00.490Z,0.08
2022-11-27T10:32:26.743Z,0.11
2022-11-27T10:37:41.218Z,0.37
2022-11-27T10:42:51.042Z,0.46
2022-11-27T10:47:54.361Z,0.56
2022-11-27T10:53:01.573Z,0.58
2022-11-27T10:58:12.434Z,0.39
2022-11-27T11:03:19.252Z,0.24
2022-11-27T11:08:24.565Z,0.11
2022-11-27T11:13:31.004Z,0.17
2022-11-27T11:18:36.693Z,0.42
2022-11-27T11:23:42.435Z,0.25
2022-11-27T11:28:51.903Z,0.05
2022-11-27T11:33:59.953Z,-0.03
2022-11-27T11:39:03.342Z,-0.18
2022-11-27T11:44:21.453Z,-0.15
2022-11-27T11:49:27.367Z,-0.22
2022-11-27T11:54:44.127Z,-0.46
2022-11-27T11:59:55.817Z,-0.63
2022-11-27T12:05:28.204Z,-0.70
2022-11-27T12:10:40.364Z,-0.97
2022-11-27T12:15:51.626Z,-0.98
2022-11-27T12:21:07.916Z,-0.91
2022-11-27T12:26:22.601Z,-0.84
2022-11-27T12:31:42.004Z,-0.95
2022-11-27T12:37:04.141Z,-1.24
2022-11-27T12:42:22.158Z,-1.20
2022-11-27T12:47:34.952Z,-1.19
2022-11-27T12:52:42.733Z,-1.09
2022-11-27T12:57:50.758Z,-1.29
2022-11-27T13:03:04.154Z,-1.31
2022-11-27T13:08:14.774Z,-1.62
2022-11-27T13:13:24.578Z,-1.58
2022-11-27T13:18:35.217Z,-1.51
2022-11-27T13:23:38.900Z,-1.72
2022-11-27T13:28:45.843Z,-1.67
2022-11-27T13:33:52.388Z,-1.89
2022-11-27T13:38:59.307Z,-2.02
2022-11-27T13:44:04.880Z,-1.78
2022-11-27T13:49:27.700Z,-1.77
2022-11-27T13:54:31.362Z,-1.85
2022-11-27T13:59:39.159Z,-2.03
2022-11-27T14:04:56.104Z,-2.05
2022-11-27T14:10:10.138Z,-2.21
2022-11-27T14:15:23.981Z,-2.07
2022-11-27T14:20:33.732Z,-2.14
2022-11-27T14:25:37.546Z,-2.39
2022-11-27T14:30:46.043Z,-2.24
2022-11-27T14:35:52.446Z,-2.26
2022-11-27T14:41:07.978Z,-2.12
2022-11-27T14:46:16.587Z,-2.20
2022-11-27T14:51:24.543Z,-2.20
2022-11-27T14:56:32.686Z,-2.21
2022-11-27T15:01:37.444Z,-2.13
2022-11-27T15:06:45.437Z,-2.01
2022-11-27T15:11:56.819Z,-2.17
2022-11-27T15:17:00.899Z,-2.10
2022-11-27T15:22:06.668Z,-1.93
2022-11-27T15:27:19.110Z,-2.01
2022-11-27T15:32:25.586Z,-2.00
2022-11-27T15:37:34.686Z,-2.03
2022-11-27T15:42:38.550Z,-2.00
2022-11-27T15:47:42.747Z,-2.00
2022-11-27T15:52:48.835Z,-2.05
2022-11-27T15:57:55.666Z,-2.16
2022-11-27T16:02:59.445Z,-2.27
2022-11-27T16:08:05.938Z,-2.19
2022-11-27T16:13:09.992Z,-2.21
2022-11-27T16:18:13.714Z,-2.07
2022-11-27T16:23:18.519Z,-2.08
2022-11-27T16:28:21.994Z,-2.23
2022-11-27T16:33:27.243Z,-2.30
2022-11-27T16:38:34.351Z,-2.23
2022-11-27T16:43:42.170Z,-2.14
2022-11-27T16:48:47.010Z,-2.14
2022-11-27T16:53:52.677Z,-2.12
2022-11-27T16:59:01.156Z,-2.21
2022-11-27T17:04:09.323Z,-2.36
2022-11-27T17:09:17.117Z,-2.19
2022-11-27T17:14:23.183Z,-2.19
2022-11-27T17:19:30.272Z,-2.23
2022-11-27T17:24:36.445Z,-2.30
2022-11-27T17:29:41.157Z,-2.30
2022-11-27T17:34:45.603Z,-2.22
2022-11-27T17:39:51.033Z,-2.36
2022-11-27T17:44:57.790Z,-2.43
2022-11-27T17:50:04.673Z,-2.59
2022-11-27T17:55:13.089Z,-2.65
2022-11-27T18:00:18.904Z,-2.80
2022-11-27T18:05:24.055Z,-2.68
2022-11-27T18:10:31.507Z,-2.55
2022-11-27T18:15:35.896Z,-2.65
2022-11-27T18:20:39.400Z,-2.66
2022-11-27T18:25:48.841Z,-2.67
2022-11-27T18:30:53.211Z,-2.63
2022-11-27T18:36:00.113Z,-2.61
2022-11-27T18:41:10.207Z,-2.53
2022-11-27T18:46:15.325Z,-2.52
2022-11-27T18:51:21.010Z,-2.98
2022-11-27T18:56:35.553Z,-2.95
2022-11-27T19:01:42.232Z,-2.89
2022-11-27T19:06:46.655Z,-2.98
2022-11-27T19:11:52.037Z,-2.73
2022-11-27T19:16:59.080Z,-2.86
2022-11-27T19:22:05.306Z,-2.78
2022-11-27T19:27:10.184Z,-2.99
2022-11-27T19:32:13.641Z,-2.94
2022-11-27T19:37:33.154Z,-2.86
2022-11-27T19:42:38.705Z,-2.82
2022-11-27T19:47:41.797Z,-2.66
2022-11-27T19:52:45.513Z,-2.86
2022-11-27T19:57:50.728Z,-2.81
2022-11-27T20:02:54.112Z,-2.98
2022-11-27T20:07:57.943Z,-2.84
2022-11-27T20:13:03.026Z,-2.85
2022-11-27T20:18:06.587Z,-2.84
2022-11-27T20:23:09.880Z,-2.90
2022-11-27T20:28:15.147Z,-2.60
2022-11-27T20:33:19.992Z,-2.56
2022-11-27T20:38:23.157Z,-2.42
2022-11-27T20:43:27.746Z,-2.56
2022-11-27T20:48:31.023Z,-2.81
2022-11-27T20:53:34.585Z,-2.86
2022-11-27T20:58:40.577Z,-2.78
2022-11-27T21:03:44.053Z,-2.71
2022-11-27T21:08:47.538Z,-2.85
2022-11-27T21:13:52.733Z,-2.65
2022-11-27T21:18:56.776Z,-2.53
2022-11-27T21:24:00.702Z,-2.57
2022-11-27T21:29:05.780Z,-2.65
2022-11-27T21:34:10.411Z,-2.70
2022-11-27T21:39:20.296Z,-2.72
2022-11-27T21:44:26.109Z,-2.84
2022-11-27T21:49:29.477Z,-2.73
2022-11-27T21:54:32.830Z,-2.89
2022-11-27T21:59:37.546Z,-2.67
2022-11-27T22:04:40.876Z,-2.86
2022-11-27T22:09:44.392Z,-2.74
2022-11-27T22:14:50.780Z,-2.53
2022-11-27T22:19:54.204Z,-2.61
2022-11-27T22:24:57.697Z,-2.76
2022-11-27T22:30:02.447Z,-2.47
2022-11-27T22:35:07.553Z,-2.71
2022-11-27T22:40:11.519Z,-2.71
2022-11-27T22:45:16.646Z,-2.66
2022-11-27T22:50:19.869Z,-2.63
2022-11-27T22:55:23.044Z,-2.74
2022-11-27T23:00:27.673Z,-2.73
2022-11-27T23:05:30.876Z,-2.78
2022-11-27T23:10:34.382Z,-3.03
2022-11-27T23:15:39.168Z,-2.71
2022-11-27T23:20:43.268Z,-2.50
2022-11-27T23:25:46.530Z,-2.84
2022-11-27T23:31:08.809Z,-2.59
2022-11-27T23:36:14.530Z,-2.75
2022-11-27T23:41:19.188Z,-2.82
2022-11-27T23:46:26.485Z,-2.79
2022-11-27T23:51:32.899Z,-2.92
2022-11-27T23:56:36.512Z,-2.94
